OINR 
Ramsar Airport
Iran 
ICAOIATAStatus
OINRRZROperational
LatitudeLongitude
36° 54' 35" N50° 40' 46" E
36.90990150.679600
Local Time (DST+5)UTC (GMT+4)
04-20-2014 02:50 am04-19-2014 22:20
Sunrise-SunsetLocalUTC
Begin Civil Twilight05:57 am01:27
Sunrise06:24 am01:54
Sunset07:47 pm15:17
End Civil Twilight08:14 pm15:44

Current Weather

METARObservedFlight Conditions

OINR 192200Z 00000KT CAVOK 14/13 Q1013

Sat, Apr 19, 2014 @ 22:00 UTC(Z)

(20 Minutes ago)

VFR

(Visual Flight Rules)

WindVisibilityCloudsConditions
Calm
10 km or more
  • Clear skies
  • No significant weather
TemperaturesReadingsPrecipitation
Current Temp14°C (57°F)
Dewpoint13°C (55°F)
Humidity94%
Altimeter29.91"Hg
Sea Level Pressure1013mb
None Recorded

Additional weather within a 92.6km radius of OINR

Location METAR
OINN

75km E (111°)

20 minutes ago
VFR VFR    MVFR MVFR    IFR IFR    LIFR LIFR    Unknown Unknown

Previous 24 hour Weather Graphs

  Loading...

CheckWX.com is intended as a tool to help pilots better visualize weather data.   It is not intended as a substitute for an official weather briefing obtained from a Flight Service Station.
CheckWX.com does not meet the FAA requirements for an official pre-flight weather briefing.   Therefore, it's important that pilots still call and obtain an official FSS pre-flight weather briefing.